Terminal Aerodrome Forecast
Issued by NWS Sterling, VA

Current Version | Previous Version | Graphics & Text | Print | Product List | Glossary On
Versions: 1 2 3 4 5 6 7 8 9 10 11 12 13 14 15 16 17 18 19 20 21 22 23 24 25 26 27 28 29 30
000
FTUS41 KLWX 161737
TAFIAD
TAF
KIAD 161737Z 1618/1724 16005KT P6SM BKN015
     FM170600 16004KT 3SM BR OVC015
     FM170900 16004KT 3SM BR OVC005
     FM171200 VRB03KT 2SM -SHRA BR OVC005
     FM171800 17007KT 3SM -SHRA BR OVC015=

USA.gov is the U.S. government's official web portal to all federal, state and local government web resources and services.